Time;durP1;ratioP1;P1;durP2;ratioP2;P2;SDS_P1;SDS_P2;PMS_P1;PMS_P2;Temp;Humidity;BMP_temperature;BMP_pressure;BME280_temperature;BME280_humidity;BME280_pressure;Samples;Min_cycle;Max_cycle;Signal;HPM_P1;HPM_P2
2022/04/25 00:01:47;;;;;;;;;9.60;6.60;;;;;18.70;37.13;98339.72;5081759;28;8979;-78
2022/04/25 00:04:17;;;;;;;;;9.60;7.00;;;;;18.76;37.09;98333.25;5048115;28;8848;-81
2022/04/25 00:06:46;;;;;;;;;10.00;8.00;;;;;18.74;36.88;98329.84;5049995;28;8900;-80
2022/04/25 00:09:15;;;;;;;;;5.60;5.40;;;;;18.72;36.69;98326.44;5049945;28;8845;-81
2022/04/25 00:11:43;;;;;;;;;4.60;4.00;;;;;18.65;37.06;98325.91;5065098;28;8845;-80
2022/04/25 00:14:14;;;;;;;;;6.40;6.40;;;;;18.66;37.16;98321.50;5081866;28;8881;-80
2022/04/25 00:16:43;;;;;;;;;8.00;5.00;;;;;18.66;37.07;98324.13;5081672;28;8829;-80
2022/04/25 00:19:11;;;;;;;;;5.60;4.60;;;;;18.63;36.89;98325.13;5049881;28;8879;-79
2022/04/25 00:21:42;;;;;;;;;7.60;5.60;;;;;18.65;36.74;98327.69;5064877;28;8891;-79
2022/04/25 00:24:10;;;;;;;;;7.40;6.00;;;;;18.64;36.67;98315.44;5049911;28;8860;-79
2022/04/25 00:26:39;;;;;;;;;7.00;5.60;;;;;18.65;36.92;98323.25;5081954;28;8869;-80
2022/04/25 00:29:07;;;;;;;;;7.40;6.20;;;;;18.60;36.97;98320.03;5065104;28;8872;-80
2022/04/25 00:31:36;;;;;;;;;7.60;7.60;;;;;18.53;37.42;98310.72;5048413;28;8890;-79
2022/04/25 00:34:05;;;;;;;;;6.00;6.00;;;;;18.42;37.40;98324.47;5014562;28;8857;-80
2022/04/25 00:36:33;;;;;;;;;6.20;6.00;;;;;18.44;37.22;98312.06;5048532;28;8848;-79
2022/04/25 00:39:04;;;;;;;;;8.00;5.40;;;;;18.41;37.38;98314.88;5048224;28;9688;-80
2022/04/25 00:41:32;;;;;;;;;9.20;4.40;;;;;18.30;37.78;98306.66;5064514;28;8965;-79
2022/04/25 00:44:01;;;;;;;;;3.40;2.40;;;;;18.33;37.21;98314.41;5047997;28;8845;-79
2022/04/25 00:46:29;;;;;;;;;8.20;7.60;;;;;18.16;37.55;98309.16;5067357;28;8850;-79
2022/04/25 00:48:58;;;;;;;;;5.00;5.00;;;;;18.08;37.03;98306.91;5069108;28;8894;-80
2022/04/25 00:51:26;;;;;;;;;5.40;5.40;;;;;18.07;36.89;98310.47;5069114;28;8991;-80
2022/04/25 00:53:55;;;;;;;;;10.40;5.20;;;;;17.95;37.55;98317.22;5069021;28;8971;-79
2022/04/25 00:56:26;;;;;;;;;9.00;5.00;;;;;17.96;37.35;98312.78;5101173;28;8835;-79
2022/04/25 00:58:55;;;;;;;;;3.00;3.00;;;;;17.94;37.76;98315.53;5068776;28;8858;-78
2022/04/25 01:01:26;;;;;;;;;8.20;6.40;;;;;17.87;37.54;98312.34;5068901;28;8858;-78
2022/04/25 01:03:54;;;;;;;;;6.40;4.40;;;;;17.87;38.27;98314.97;5068991;28;8850;-80
2022/04/25 01:06:23;;;;;;;;;6.20;4.80;;;;;17.81;38.31;98314.41;5067012;28;9618;-80
2022/04/25 01:08:52;;;;;;;;;5.40;5.40;;;;;17.76;38.66;98311.97;5084503;28;8850;-78
2022/04/25 01:11:21;;;;;;;;;8.80;5.00;;;;;17.62;38.32;98306.56;5067666;28;8908;-79
2022/04/25 01:13:51;;;;;;;;;5.60;4.00;;;;;17.67;38.48;98301.88;5084450;28;8966;-79
2022/04/25 01:16:20;;;;;;;;;6.00;4.80;;;;;17.50;39.25;98305.34;5064211;28;8857;-78
2022/04/25 01:18:49;;;;;;;;;5.40;4.00;;;;;17.67;38.95;98296.63;5080640;28;8861;-80
2022/04/25 01:21:21;;;;;;;;;4.00;3.60;;;;;17.63;38.57;98295.91;5048795;28;9599;-79
2022/04/25 01:29:23;;;;;;;;;3.20;3.20;;;;;17.63;37.99;98295.91;5048313;28;8857;-79
2022/04/25 01:31:52;;;;;;;;;2.80;2.20;;;;;17.51;38.59;98291.25;5048656;28;8860;-80
2022/04/25 01:34:20;;;;;;;;;4.80;2.40;;;;;17.42;38.56;98296.97;5029939;28;8869;-79
2022/04/25 01:36:49;;;;;;;;;4.00;4.00;;;;;17.46;38.60;98291.47;5049334;28;8857;-79
2022/04/25 01:39:19;;;;;;;;;5.00;4.60;;;;;17.51;38.11;98286.84;5047644;28;8865;-78
2022/04/25 01:41:47;;;;;;;;;3.00;3.00;;;;;17.53;38.47;98284.13;5048429;28;8840;-79
2022/04/25 01:44:16;;;;;;;;;6.80;2.80;;;;;17.50;38.51;98292.16;5067032;28;8852;-78
2022/04/25 01:46:45;;;;;;;;;2.40;2.40;;;;;17.57;38.71;98292.75;4984431;28;8872;-80
2022/04/25 01:49:13;;;;;;;;;7.00;5.20;;;;;17.40;38.19;98286.50;5068422;28;8860;-79
2022/04/25 01:51:42;;;;;;;;;4.20;3.00;;;;;17.34;38.29;98287.66;5050567;28;8841;-79
2022/04/25 01:54:11;;;;;;;;;4.00;2.20;;;;;17.35;38.23;98277.97;5052389;28;8861;-79
2022/04/25 01:56:40;;;;;;;;;5.40;3.20;;;;;17.31;38.43;98285.16;5051956;28;8857;-79
2022/04/25 01:59:09;;;;;;;;;2.00;2.00;;;;;17.45;38.10;98287.13;5049842;28;8865;-79
2022/04/25 02:01:37;;;;;;;;;3.00;2.00;;;;;17.34;37.77;98273.63;5051772;28;8845;-78
2022/04/25 02:04:06;;;;;;;;;3.00;3.00;;;;;17.39;37.62;98281.31;5067502;28;9719;-78
2022/04/25 02:06:35;;;;;;;;;5.80;3.20;;;;;17.48;37.95;98281.69;5049667;28;8911;-79
2022/04/25 02:09:04;;;;;;;;;2.80;2.80;;;;;17.52;37.64;98269.22;5050363;28;8849;-78
2022/04/25 02:11:33;;;;;;;;;3.20;2.00;;;;;17.53;37.64;98271.78;5083713;28;8860;-79
2022/04/25 02:14:04;;;;;;;;;3.40;2.00;;;;;17.56;37.55;98268.16;5083689;28;9699;-79
2022/04/25 02:16:33;;;;;;;;;3.80;2.60;;;;;17.70;36.94;98281.50;5083819;28;8902;-79
2022/04/25 02:19:01;;;;;;;;;1.80;1.80;;;;;17.70;37.25;98276.22;5051803;28;8937;-79
2022/04/25 02:21:30;;;;;;;;;5.20;3.00;;;;;17.71;36.65;98277.06;5050144;28;8849;-79
2022/04/25 02:23:59;;;;;;;;;2.00;1.00;;;;;17.76;36.99;98271.59;5052394;28;8849;-80
2022/04/25 02:26:28;;;;;;;;;3.00;2.40;;;;;17.70;37.04;98278.03;5052135;28;8857;-78
2022/04/25 02:28:57;;;;;;;;;2.40;2.40;;;;;17.76;36.56;98272.44;5032729;28;8880;-79
2022/04/25 02:31:27;;;;;;;;;2.40;2.00;;;;;17.68;37.24;98269.34;5017084;28;8991;-80
2022/04/25 02:33:55;;;;;;;;;3.40;3.00;;;;;17.67;37.02;98270.25;5066957;28;8895;-79
2022/04/25 02:36:24;;;;;;;;;3.00;2.60;;;;;17.75;36.93;98270.75;5032587;28;8934;-79
2022/04/25 02:38:53;;;;;;;;;3.00;2.60;;;;;17.80;36.88;98266.06;5066394;28;8845;-80
2022/04/25 02:41:22;;;;;;;;;2.40;2.40;;;;;17.90;36.80;98266.47;5051026;28;8860;-79
2022/04/25 02:43:50;;;;;;;;;5.00;5.00;;;;;17.85;36.81;98265.88;5050830;28;8884;-81
2022/04/25 02:46:19;;;;;;;;;6.40;4.00;;;;;17.85;36.90;98265.88;5049610;28;8864;-78
2022/04/25 02:48:49;;;;;;;;;3.20;3.20;;;;;17.88;36.57;98261.31;5049724;28;8861;-81
2022/04/25 02:51:18;;;;;;;;;3.60;2.00;;;;;17.86;36.94;98267.56;5053832;28;8862;-78
2022/04/25 02:53:46;;;;;;;;;2.40;2.40;;;;;17.84;36.60;98261.50;5067395;28;9659;-79
2022/04/25 02:56:15;;;;;;;;;3.00;3.00;;;;;17.87;37.08;98264.00;5067834;28;9062;-79
2022/04/25 02:58:44;;;;;;;;;3.60;3.00;;;;;18.02;36.59;98260.59;5068057;28;8841;-79
2022/04/25 03:01:12;;;;;;;;;2.80;2.20;;;;;17.92;36.72;98265.50;5067896;28;8847;-79
2022/04/25 03:03:41;;;;;;;;;3.20;3.00;;;;;18.07;36.28;98279.69;5051537;28;8840;-79
2022/04/25 03:06:12;;;;;;;;;6.00;3.20;;;;;18.11;36.48;98277.75;5068065;28;8851;-79
2022/04/25 03:08:41;;;;;;;;;3.20;3.20;;;;;18.11;36.41;98283.84;5085051;28;8851;-79
2022/04/25 03:11:10;;;;;;;;;6.40;3.00;;;;;18.17;36.66;98282.69;5067547;28;9014;-79
2022/04/25 03:13:39;;;;;;;;;2.20;2.00;;;;;18.11;36.38;98298.84;5051034;28;8863;-79
2022/04/25 03:16:09;;;;;;;;;2.00;2.00;;;;;18.15;36.39;98308.31;5067543;28;8876;-79
2022/04/25 03:18:38;;;;;;;;;4.00;2.40;;;;;18.17;36.73;98332.81;5067552;28;8860;-79
2022/04/25 03:21:07;;;;;;;;;3.00;2.60;;;;;18.02;37.73;98360.84;5067704;28;8864;-79
2022/04/25 03:23:37;;;;;;;;;5.60;5.00;;;;;17.35;39.61;98417.63;5067561;28;8893;-79
2022/04/25 03:26:07;;;;;;;;;7.00;6.80;;;;;16.72;42.82;98450.25;5070694;28;9624;-79
2022/04/25 03:28:35;;;;;;;;;5.60;5.20;;;;;16.56;44.82;98439.53;5035370;28;8973;-79
2022/04/25 03:31:06;;;;;;;;;6.20;6.20;;;;;15.91;51.27;98475.50;5070196;28;8866;-79
2022/04/25 03:33:36;;;;;;;;;9.60;8.80;;;;;15.00;58.93;98472.78;5070110;28;8955;-79
2022/04/25 03:36:06;;;;;;;;;6.00;6.00;;;;;14.79;63.78;98501.50;5064353;28;8877;-80
2022/04/25 03:38:34;;;;;;;;;9.00;8.80;;;;;14.68;68.04;98515.91;5065037;28;8865;-80
2022/04/25 03:41:04;;;;;;;;;7.40;6.80;;;;;13.26;73.64;98500.09;5050374;28;8868;-78
2022/04/25 03:43:34;;;;;;;;;10.60;6.60;;;;;12.23;81.07;98533.28;5031527;28;8822;-80
2022/04/25 03:46:02;;;;;;;;;6.80;6.80;;;;;11.94;86.18;98519.13;5030922;28;8868;-81
2022/04/25 03:48:31;;;;;;;;;5.40;5.20;;;;;12.15;88.34;98524.78;5065507;28;8987;-79
2022/04/25 03:51:00;;;;;;;;;10.20;10.00;;;;;12.01;86.88;98528.56;5049551;28;8941;-81
2022/04/25 03:53:29;;;;;;;;;4.00;4.00;;;;;11.84;87.23;98517.63;5064739;28;9603;-82
2022/04/25 03:58:45;;;;;;;;;7.00;5.00;;;;;11.53;86.13;98492.19;5049958;28;8955;-81
2022/04/25 04:01:13;;;;;;;;;5.00;5.00;;;;;11.47;86.57;98489.66;5049359;28;8848;-81
2022/04/25 04:03:42;;;;;;;;;9.60;9.60;;;;;11.50;86.94;98468.72;5064437;28;8978;-82
2022/04/25 04:06:12;;;;;;;;;9.20;8.00;;;;;11.64;86.12;98455.38;5064876;28;9766;-81
2022/04/25 04:08:41;;;;;;;;;8.20;8.00;;;;;11.84;86.99;98463.59;5047141;28;8973;-81
2022/04/25 04:11:10;;;;;;;;;13.00;7.00;;;;;11.97;85.07;98469.44;5064777;28;8860;-80
2022/04/25 04:13:38;;;;;;;;;10.20;9.20;;;;;12.25;86.75;98480.09;5049439;28;8849;-80
2022/04/25 04:16:08;;;;;;;;;8.00;7.60;;;;;12.43;84.94;98486.59;5064578;28;8883;-81
2022/04/25 04:18:39;;;;;;;;;5.40;5.40;;;;;12.56;83.68;98478.47;5048051;28;8879;-82
2022/04/25 04:21:09;;;;;;;;;5.80;5.80;;;;;12.20;84.28;98489.78;4982286;28;8837;-80
2022/04/25 04:23:37;;;;;;;;;11.20;9.00;;;;;12.48;85.38;98499.56;5048013;28;8853;-80
2022/04/25 04:26:06;;;;;;;;;5.40;4.60;;;;;12.75;86.58;98497.16;5049367;28;8999;-81
2022/04/25 04:28:35;;;;;;;;;9.60;9.60;;;;;13.01;86.98;98497.31;5047832;28;8845;-80
2022/04/25 04:31:04;;;;;;;;;13.80;13.00;;;;;13.19;85.04;98508.16;5052252;28;8845;-81
2022/04/25 04:33:34;;;;;;;;;11.40;10.60;;;;;13.41;84.97;98493.59;5053903;28;8853;-80
2022/04/25 04:36:22;;;;;;;;;12.00;12.00;;;;;13.61;84.80;98486.91;5048511;28;8856;-80
2022/04/25 04:38:51;;;;;;;;;17.00;17.00;;;;;13.77;84.33;98484.69;5064560;28;8860;-81
2022/04/25 04:41:19;;;;;;;;;18.60;18.60;;;;;13.90;83.45;98487.78;5065047;28;9714;-81
2022/04/25 04:43:48;;;;;;;;;18.00;17.40;;;;;13.95;80.76;98494.59;5047062;28;8845;-81
2022/04/25 04:46:17;;;;;;;;;16.00;15.00;;;;;14.04;81.33;98477.72;5081436;28;8868;-81
2022/04/25 04:48:47;;;;;;;;;11.00;11.00;;;;;14.08;81.15;98497.69;5047700;28;8861;-81
2022/04/25 04:51:16;;;;;;;;;9.20;9.20;;;;;14.13;80.49;98492.31;5051731;28;8868;-81
2022/04/25 04:53:44;;;;;;;;;14.80;10.80;;;;;14.21;81.22;98504.28;5067451;28;8861;-79
2022/04/25 04:56:14;;;;;;;;;11.20;10.80;;;;;14.28;81.30;98522.44;5049202;28;9580;-81
2022/04/25 04:58:42;;;;;;;;;13.40;10.20;;;;;14.38;82.43;98524.69;5048910;28;8845;-81
2022/04/25 05:01:11;;;;;;;;;36.50;33.25;;;;;14.50;83.06;98520.81;5048984;28;8987;-80
2022/04/25 05:03:41;;;;;;;;;27.20;24.20;;;;;14.47;80.23;98531.41;5049537;28;8867;-81
2022/04/25 05:06:12;;;;;;;;;24.40;22.40;;;;;14.56;80.95;98535.50;5048525;28;8882;-81
2022/04/25 05:08:41;;;;;;;;;41.25;36.25;;;;;14.65;81.08;98536.97;5047045;28;8853;-80
2022/04/25 05:11:11;;;;;;;;;11.60;11.00;;;;;14.72;80.98;98547.22;5080788;28;8857;-80
2022/04/25 05:13:39;;;;;;;;;7.00;6.60;;;;;14.82;81.49;98556.50;5047369;28;8871;-80
2022/04/25 05:16:09;;;;;;;;;25.20;23.80;;;;;14.89;81.47;98557.16;5034342;28;8883;-81
2022/04/25 05:18:38;;;;;;;;;17.40;17.00;;;;;14.96;81.07;98561.28;5053011;28;8871;-79
2022/04/25 05:21:07;;;;;;;;;7.20;7.00;;;;;15.02;80.20;98563.69;5018509;28;8860;-81
2022/04/25 05:23:37;;;;;;;;;49.00;39.50;;;;;14.89;78.95;98577.28;5068047;28;8833;-80
2022/04/25 05:26:07;;;;;;;;;33.20;27.80;;;;;14.93;79.08;98576.28;5062576;28;8986;-82
2022/04/25 05:28:36;;;;;;;;;18.80;17.40;;;;;15.00;80.28;98580.41;5070128;28;9000;-80
2022/04/25 05:31:05;;;;;;;;;12.80;12.80;;;;;15.05;80.16;98590.75;5071087;28;8834;-80
2022/04/25 05:33:33;;;;;;;;;12.00;12.00;;;;;15.01;79.88;98601.38;5070097;28;8916;-80
2022/04/25 05:36:02;;;;;;;;;14.00;11.00;;;;;15.02;78.39;98599.59;5072620;28;8990;-79
2022/04/25 05:38:30;;;;;;;;;12.60;11.60;;;;;15.00;78.13;98606.66;5105289;28;8893;-79
2022/04/25 05:41:00;;;;;;;;;9.40;7.40;;;;;14.68;74.45;98612.97;5072266;28;8969;-80
2022/04/25 05:43:29;;;;;;;;;11.20;10.40;;;;;14.65;75.62;98613.06;5071256;28;8892;-79
2022/04/25 05:45:58;;;;;;;;;19.40;18.00;;;;;14.59;77.14;98612.38;5053235;28;8835;-80
2022/04/25 05:54:05;;;;;;;;;9.20;9.20;;;;;14.90;77.04;98624.50;5032629;28;8862;-80
2022/04/25 05:56:35;;;;;;;;;11.20;11.20;;;;;14.94;74.74;98628.72;5016148;28;8858;-80
2022/04/25 05:59:04;;;;;;;;;23.00;20.20;;;;;15.21;76.90;98629.56;5048819;28;9015;-80
2022/04/25 06:01:32;;;;;;;;;41.25;35.25;;;;;15.45;77.07;98640.16;5032339;28;8842;-81
2022/04/25 06:04:01;;;;;;;;;31.20;28.60;;;;;15.65;76.00;98642.09;5032420;28;8873;-80
2022/04/25 06:06:30;;;;;;;;;18.40;14.20;;;;;15.78;75.69;98642.50;5032484;28;9105;-81
2022/04/25 06:08:58;;;;;;;;;12.20;11.60;;;;;15.87;74.47;98647.44;5049204;28;8890;-80
2022/04/25 06:11:27;;;;;;;;;9.80;9.40;;;;;15.89;70.38;98642.13;5032158;28;8850;-79
2022/04/25 06:13:58;;;;;;;;;10.60;10.00;;;;;16.00;73.49;98647.00;5049088;28;8834;-80
2022/04/25 06:16:27;;;;;;;;;9.00;9.00;;;;;16.16;73.41;98640.22;5032532;28;8853;-81
2022/04/25 06:18:56;;;;;;;;;10.40;10.40;;;;;16.33;73.00;98634.31;5048806;28;8866;-80
2022/04/25 06:21:25;;;;;;;;;8.80;8.80;;;;;16.49;72.96;98640.72;5031527;28;8842;-79
2022/04/25 06:23:54;;;;;;;;;12.40;10.00;;;;;16.62;71.95;98641.09;5048372;28;8834;-80
2022/04/25 06:26:22;;;;;;;;;8.00;6.40;;;;;16.58;67.77;98631.59;5048111;28;8980;-79
2022/04/25 06:28:51;;;;;;;;;8.40;8.40;;;;;16.72;72.14;98637.16;5048617;28;8870;-79
2022/04/25 06:31:22;;;;;;;;;7.20;7.00;;;;;16.35;65.64;98641.25;5050089;28;8845;-80
2022/04/25 06:33:50;;;;;;;;;5.40;5.40;;;;;16.22;66.08;98644.41;5032407;28;8881;-79
2022/04/25 06:36:19;;;;;;;;;8.40;8.40;;;;;15.95;67.55;98660.28;5049224;28;9045;-79
2022/04/25 06:38:48;;;;;;;;;7.20;6.80;;;;;15.74;67.68;98660.16;5050779;28;8840;-79
2022/04/25 06:41:17;;;;;;;;;6.40;6.20;;;;;14.98;69.13;98661.84;5066113;28;8874;-80
2022/04/25 06:43:45;;;;;;;;;7.60;6.20;;;;;14.47;70.02;98661.72;5065933;28;8899;-80
2022/04/25 06:46:14;;;;;;;;;2.40;2.40;;;;;14.37;72.11;98663.75;5048940;28;8975;-80
2022/04/25 06:49:19;;;;;;;;;5.40;5.20;;;;;14.20;73.12;98664.25;5083015;28;9044;-79
2022/04/25 06:51:34;;;;;;;;;5.40;5.40;;;;;13.95;74.72;98674.56;5049233;28;8872;-80
2022/04/25 06:54:03;;;;;;;;;10.00;8.40;;;;;13.95;75.89;98670.22;5065922;28;8868;-79
2022/04/25 06:56:32;;;;;;;;;10.00;9.20;;;;;13.86;74.82;98686.19;5050394;28;8873;-80
2022/04/25 06:59:00;;;;;;;;;7.40;7.00;;;;;13.74;75.67;98687.41;5049441;28;8880;-79
2022/04/25 07:01:29;;;;;;;;;7.00;7.00;;;;;13.93;75.00;98679.00;5049118;28;8869;-79
2022/04/25 07:04:00;;;;;;;;;8.40;7.40;;;;;14.20;75.85;98680.00;5082587;28;9021;-81
2022/04/25 07:06:28;;;;;;;;;9.00;8.20;;;;;14.28;74.41;98679.78;5071518;28;8837;-79
2022/04/25 07:08:57;;;;;;;;;5.40;5.40;;;;;13.99;72.00;98681.47;5052001;28;8888;-79
2022/04/25 07:11:25;;;;;;;;;6.80;6.20;;;;;13.85;71.08;98681.84;5049527;28;8844;-79
2022/04/25 07:13:55;;;;;;;;;5.20;4.20;;;;;13.81;70.25;98681.06;5050367;28;8923;-80
2022/04/25 07:16:24;;;;;;;;;4.60;4.60;;;;;13.79;69.86;98680.25;5065972;28;8860;-80
2022/04/25 07:18:53;;;;;;;;;6.00;5.20;;;;;14.12;72.82;98674.97;5050396;28;9643;-80
2022/04/25 07:30:02;;;;;;;;;5.80;5.00;;;;;15.56;68.84;98661.66;5048147;28;8884;-77
2022/04/25 07:32:32;;;;;;;;;4.00;3.60;;;;;15.89;68.10;98653.50;5049872;28;8853;-80
2022/04/25 07:35:04;;;;;;;;;4.40;4.40;;;;;16.19;65.74;98653.28;5001193;28;9011;-79
2022/04/25 07:37:34;;;;;;;;;4.20;4.20;;;;;16.50;66.29;98659.97;5048912;28;8872;-80
2022/04/25 07:40:03;;;;;;;;;4.00;3.00;;;;;16.76;64.46;98649.28;5048259;28;8856;-79
2022/04/25 07:42:33;;;;;;;;;4.00;3.40;;;;;17.00;62.08;98649.25;5049988;28;8934;-79
2022/04/25 07:45:02;;;;;;;;;5.40;4.60;;;;;17.23;62.59;98648.28;5049994;28;8853;-79
2022/04/25 07:47:31;;;;;;;;;4.00;4.00;;;;;17.43;61.20;98641.28;5050263;28;8865;-79
2022/04/25 07:50:00;;;;;;;;;2.40;2.20;;;;;17.59;58.31;98650.25;5064682;28;8856;-78
2022/04/25 07:52:29;;;;;;;;;4.00;4.00;;;;;17.72;57.02;98663.75;5106314;28;8938;-79
2022/04/25 07:54:59;;;;;;;;;4.00;4.00;;;;;17.90;58.66;98662.09;5021378;28;8914;-79
2022/04/25 07:57:28;;;;;;;;;3.80;3.80;;;;;17.86;54.24;98666.69;5087141;28;8818;-79
2022/04/25 07:59:56;;;;;;;;;3.60;2.00;;;;;17.38;53.99;98665.22;5070168;28;8980;-79
2022/04/25 08:02:25;;;;;;;;;3.40;3.00;;;;;17.23;52.59;98665.88;5069671;28;8834;-78
2022/04/25 08:04:54;;;;;;;;;1.80;1.40;;;;;16.89;53.83;98669.88;5070876;28;8929;-80
2022/04/25 08:07:23;;;;;;;;;3.80;3.80;;;;;16.73;54.23;98674.91;5070251;28;8915;-80
2022/04/25 08:09:53;;;;;;;;;1.00;1.00;;;;;16.42;55.13;98676.06;5036411;28;9049;-80
2022/04/25 08:18:00;;;;;;;;;2.00;2.00;;;;;17.41;56.64;98672.13;5089838;28;8840;-79
2022/04/25 08:20:30;;;;;;;;;2.60;2.60;;;;;17.31;51.99;98675.16;5107135;28;8859;-79
2022/04/25 08:22:58;;;;;;;;;3.60;3.60;;;;;17.48;52.53;98674.44;5083001;28;8834;-79
2022/04/25 08:25:31;;;;;;;;;1.00;1.00;;;;;17.42;52.92;98677.34;5069383;28;8970;-79
2022/04/25 08:28:01;;;;;;;;;3.20;3.20;;;;;17.74;53.93;98677.72;5071106;28;8842;-80
2022/04/25 08:30:30;;;;;;;;;4.00;4.00;;;;;18.05;53.36;98679.03;5085424;28;8896;-80
2022/04/25 08:33:00;;;;;;;;;1.00;1.00;;;;;18.26;51.51;98675.44;5069205;28;8866;-80
2022/04/25 08:35:29;;;;;;;;;2.40;2.40;;;;;18.42;51.63;98672.09;5069186;28;8831;-80
2022/04/25 08:37:58;;;;;;;;;3.60;3.60;;;;;18.65;50.66;98676.28;5084483;28;8872;-79
2022/04/25 08:40:27;;;;;;;;;2.00;2.00;;;;;18.35;49.04;98666.22;5068549;28;8882;-79
2022/04/25 08:42:59;;;;;;;;;1.60;1.60;;;;;18.58;51.09;98675.72;5068678;28;8870;-78
2022/04/25 08:45:35;;;;;;;;;2.40;2.40;;;;;18.79;49.44;98671.19;5050749;28;8842;-79
2022/04/25 08:48:04;;;;;;;;;4.20;1.60;;;;;19.03;50.29;98670.94;5069443;28;8843;-80
2022/04/25 08:50:33;;;;;;;;;1.80;1.00;;;;;18.56;46.68;98669.63;5069112;28;8912;-79
2022/04/25 08:53:02;;;;;;;;;2.00;1.80;;;;;18.53;49.60;98674.22;5068715;28;9662;-80
2022/04/25 08:55:31;;;;;;;;;4.60;3.80;;;;;18.97;49.12;98666.81;5071218;28;8919;-81
2022/04/25 08:58:00;;;;;;;;;2.20;2.00;;;;;18.87;47.38;98662.94;5058735;28;8856;-80
2022/04/25 09:00:29;;;;;;;;;3.00;2.00;;;;;19.29;47.94;98657.28;5086131;28;9984;-79
2022/04/25 09:03:00;;;;;;;;;2.60;2.60;;;;;19.28;43.53;98671.47;5053126;28;8875;-79
2022/04/25 09:05:29;;;;;;;;;1.00;1.00;;;;;19.09;43.36;98671.53;5052986;28;8849;-79
2022/04/25 09:07:59;;;;;;;;;2.80;2.00;;;;;18.74;45.84;98675.00;5053033;28;9600;-79
2022/04/25 09:10:28;;;;;;;;;0.60;0.60;;;;;19.30;46.92;98671.38;5053210;28;8869;-79
2022/04/25 09:12:58;;;;;;;;;3.80;3.00;;;;;19.78;47.20;98680.41;5067973;28;8841;-79
2022/04/25 09:15:27;;;;;;;;;3.00;3.00;;;;;20.14;43.59;98667.94;5085114;28;8937;-79
2022/04/25 09:17:57;;;;;;;;;3.00;3.00;;;;;20.38;45.92;98657.81;5067642;28;8964;-78
2022/04/25 09:20:27;;;;;;;;;3.00;3.00;;;;;20.58;43.97;98660.19;5084365;28;8880;-79
2022/04/25 09:22:57;;;;;;;;;2.00;2.00;;;;;20.90;42.20;98659.38;5052270;28;8864;-79
2022/04/25 09:25:26;;;;;;;;;4.20;3.00;;;;;20.74;42.73;98665.53;5033422;28;8991;-78
2022/04/25 09:28:14;;;;;;;;;3.00;3.00;;;;;20.84;40.21;98665.88;5050819;28;9001;-80
2022/04/25 09:30:56;;;;;;;;;4.80;4.80;;;;;20.38;40.79;98668.41;5051938;28;8919;-78
2022/04/25 09:33:27;;;;;;;;;4.00;3.00;;;;;20.69;42.23;98672.88;5050627;28;8861;-79
2022/04/25 09:35:57;;;;;;;;;3.60;3.60;;;;;20.05;42.97;98675.44;5051549;28;8906;-78
2022/04/25 09:38:31;;;;;;;;;2.40;2.40;;;;;20.49;44.22;98681.94;5016383;28;8864;-79
2022/04/25 09:41:00;;;;;;;;;2.40;2.00;;;;;20.32;43.70;98689.91;5051252;28;8864;-79
2022/04/25 09:43:30;;;;;;;;;1.00;1.00;;;;;20.14;42.40;98686.47;5033113;28;8841;-81
2022/04/25 09:46:00;;;;;;;;;3.20;3.20;;;;;19.49;44.23;98679.25;5052119;28;9595;-78
2022/04/25 09:48:29;;;;;;;;;2.00;2.00;;;;;18.37;43.56;98697.81;5066826;28;9626;-80
2022/04/25 09:51:05;;;;;;;;;1.20;1.00;;;;;17.82;43.54;98685.31;5016926;28;8853;-79
2022/04/25 09:53:44;;;;;;;;;1.00;1.00;;;;;17.46;44.70;98688.63;5050671;28;8856;-78
2022/04/25 09:56:15;;;;;;;;;1.60;1.60;;;;;17.24;44.26;98688.66;5056576;28;8920;-78
2022/04/25 09:58:45;;;;;;;;;1.00;1.00;;;;;17.29;44.82;98699.88;5089104;28;9038;-80
2022/04/25 10:01:15;;;;;;;;;1.00;1.00;;;;;17.23;45.27;98693.06;5052568;28;8876;-80
2022/04/25 10:03:44;;;;;;;;;1.40;1.00;;;;;17.29;44.48;98700.72;5083791;28;8852;-78
2022/04/25 10:06:14;;;;;;;;;1.40;1.20;;;;;17.11;44.67;98689.16;5066354;28;8848;-80
2022/04/25 10:08:43;;;;;;;;;1.80;1.20;;;;;17.38;44.83;98686.31;5051371;28;8860;-79
2022/04/25 10:11:14;;;;;;;;;1.60;0.40;;;;;17.79;42.05;98685.44;5066796;28;8873;-79
2022/04/25 10:13:43;;;;;;;;;1.00;1.00;;;;;18.07;43.42;98688.63;5031771;28;8861;-80
2022/04/25 10:16:13;;;;;;;;;2.20;2.20;;;;;18.39;41.21;98685.41;5068096;28;8873;-79
2022/04/25 10:18:42;;;;;;;;;1.00;1.00;;;;;18.06;42.45;98686.88;5085178;28;8884;-78
2022/04/25 10:21:11;;;;;;;;;1.00;1.00;;;;;18.07;40.43;98688.63;5053689;28;8872;-80
2022/04/25 10:23:41;;;;;;;;;2.00;2.00;;;;;17.73;42.16;98698.00;5069139;28;8863;-80
2022/04/25 10:26:10;;;;;;;;;0.60;0.60;;;;;17.84;43.47;98684.34;5052117;28;8855;-80
2022/04/25 10:28:45;;;;;;;;;1.00;1.00;;;;;18.18;42.46;98693.38;5003084;28;8885;-79
2022/04/25 10:31:23;;;;;;;;;1.00;1.00;;;;;18.44;41.80;98688.72;5051825;28;8980;-79
2022/04/25 10:33:55;;;;;;;;;1.60;0.00;;;;;18.72;40.68;98695.34;5052442;28;8964;-79
2022/04/25 10:36:47;;;;;;;;;1.60;1.60;;;;;17.97;41.12;98692.56;5052647;28;9055;-78
2022/04/25 10:39:19;;;;;;;;;1.00;1.00;;;;;17.84;41.71;98705.44;5069372;28;9774;-81
2022/04/25 10:44:57;;;;;;;;;1.00;1.00;;;;;18.05;42.41;98693.09;5052024;28;9621;-79
2022/04/25 10:47:26;;;;;;;;;0.40;0.40;;;;;18.27;39.63;98695.59;5069291;28;8844;-80
2022/04/25 10:50:09;;;;;;;;;1.20;1.20;;;;;18.70;41.68;98693.63;5068759;28;8844;-81
2022/04/25 10:52:55;;;;;;;;;2.00;1.00;;;;;18.87;40.34;98700.78;5051244;28;8824;-80
2022/04/25 10:55:45;;;;;;;;;1.00;1.00;;;;;18.91;39.66;98690.06;5067628;28;8872;-80
2022/04/25 10:58:21;;;;;;;;;2.00;1.00;;;;;18.98;39.17;98694.97;5051389;28;8812;-79
2022/04/25 11:00:55;;;;;;;;;1.00;1.00;;;;;18.70;39.43;98700.69;5068403;28;8949;-79
2022/04/25 11:03:32;;;;;;;;;0.00;0.00;;;;;18.69;39.62;98697.19;5070241;28;8866;-80
2022/04/25 11:06:06;;;;;;;;;2.00;2.00;;;;;18.70;39.64;98712.09;5086151;28;8970;-78
2022/04/25 11:08:37;;;;;;;;;1.00;1.00;;;;;18.70;40.50;98695.41;5070785;28;8830;-77
2022/04/25 11:11:13;;;;;;;;;0.00;0.00;;;;;19.07;40.31;98694.53;5102938;28;8889;-79
2022/04/25 11:14:14;;;;;;;;;0.20;0.20;;;;;18.89;40.34;98706.84;5070536;28;8877;-79
2022/04/25 11:16:43;;;;;;;;;1.40;1.40;;;;;18.94;40.02;98693.41;5067487;28;8869;-78
2022/04/25 11:19:17;;;;;;;;;2.40;2.00;;;;;19.46;39.58;98706.69;5049156;28;9617;-80
2022/04/25 11:21:49;;;;;;;;;0.80;0.80;;;;;19.86;37.91;98703.81;5065766;28;8949;-78
2022/04/25 11:24:29;;;;;;;;;3.40;3.00;;;;;19.94;38.30;98700.75;5050378;28;8941;-80
2022/04/25 11:27:01;;;;;;;;;2.00;0.80;;;;;20.45;38.06;98705.06;5050439;28;8962;-80
2022/04/25 11:29:31;;;;;;;;;1.00;1.00;;;;;20.69;37.74;98702.03;5082101;28;8876;-79
2022/04/25 11:32:22;;;;;;;;;1.00;1.00;;;;;20.50;36.15;98702.16;5065736;28;8907;-79
2022/04/25 11:34:51;;;;;;;;;1.20;1.20;;;;;20.33;37.08;98707.53;5050155;28;8880;-80
2022/04/25 11:37:22;;;;;;;;;2.20;2.20;;;;;20.56;37.02;98704.47;5055291;28;8846;-81
2022/04/25 11:39:59;;;;;;;;;1.00;1.00;;;;;21.06;36.40;98699.97;5084885;28;8854;-80
2022/04/25 11:42:31;;;;;;;;;2.00;2.00;;;;;20.74;36.39;98717.69;5069307;28;8830;-79
2022/04/25 11:45:01;;;;;;;;;1.80;1.80;;;;;20.66;36.59;98710.13;5069659;28;8885;-81
2022/04/25 11:47:31;;;;;;;;;2.40;2.40;;;;;20.75;36.93;98714.09;5069163;28;9727;-80
2022/04/25 11:50:02;;;;;;;;;2.40;2.40;;;;;20.70;36.94;98713.47;5067902;28;8858;-81
2022/04/25 11:52:30;;;;;;;;;0.80;0.80;;;;;20.38;37.03;98710.78;5084225;28;8846;-79
2022/04/25 11:55:00;;;;;;;;;4.20;2.00;;;;;20.33;37.55;98710.19;5084612;28;8850;-79
2022/04/25 11:57:39;;;;;;;;;3.00;3.00;;;;;20.60;37.40;98713.13;5068787;28;8970;-80
2022/04/25 12:00:10;;;;;;;;;3.00;3.00;;;;;20.82;36.47;98721.59;5018038;28;8842;-80
2022/04/25 12:02:42;;;;;;;;;1.20;1.20;;;;;20.47;37.44;98714.72;5084860;28;8878;-81
2022/04/25 12:05:12;;;;;;;;;2.60;2.60;;;;;20.63;36.87;98716.47;5052364;28;8846;-79
2022/04/25 12:16:18;;;;;;;;;6.00;4.60;;;;;20.43;38.15;98733.44;5007237;28;8846;-78
2022/04/25 12:18:51;;;;;;;;;3.60;3.60;;;;;20.53;37.46;98730.25;5006744;28;9580;-80
2022/04/25 12:21:21;;;;;;;;;3.00;3.00;;;;;20.89;37.53;98713.28;4958148;28;8890;-79
2022/04/25 12:23:51;;;;;;;;;1.80;1.80;;;;;20.85;37.31;98712.66;5007190;28;8846;-78
2022/04/25 12:26:22;;;;;;;;;2.20;2.00;;;;;20.48;37.29;98721.72;5007035;28;8928;-79
2022/04/25 12:28:55;;;;;;;;;2.80;2.80;;;;;20.97;36.75;98711.94;4957642;28;8981;-80
2022/04/25 12:31:23;;;;;;;;;2.20;2.20;;;;;21.11;36.48;98724.41;4974247;28;8858;-79
2022/04/25 12:33:53;;;;;;;;;4.60;2.60;;;;;21.29;36.13;98703.09;4990508;28;8948;-79